Gilmore City, Iowa
Current Conditions -  °F | °C
As of 3:35 AM on Monday 24 Nov 2014 (Local Time) from KFOD Reporting Station
Overcast Overcast  
Wind Chill: 15°   Ceiling: 2400
Heat Index: 27°   Visibility: 10mi
Dew Point: 19°   Wind: 14mph
Humidity: 74%   Direction: 310°NW
Pressure: 29.42"   Gusts: 24mph
Location:  42.73°N, 94.44°W
Report Text: KFOD 240935Z AUTO 31012G21KT 10SM SCT018 BKN024 OVC028 M03/M07 A2942 RMK AO1
Loading
Personal Weather Stations






























Interactive Weather Map New forecast layout! Learn more

10-Day Weather Forecast

Advertisements
Track Severe Weather on mobile